createdAt,value
2023-03-10T00:02:13.077Z,13.07
2023-03-10T00:12:15.332Z,18.17
2023-03-10T00:22:22.974Z,14.43
2023-03-10T00:32:29.553Z,13.87
2023-03-10T00:42:36.930Z,16.83
2023-03-10T00:52:41.478Z,18.07
2023-03-10T01:02:51.750Z,8.50
2023-03-10T01:12:55.562Z,16.87
2023-03-10T01:23:04.280Z,18.33
2023-03-10T01:33:13.000Z,21.30
2023-03-10T01:43:34.527Z,12.93
2023-03-10T01:53:39.045Z,22.20
2023-03-10T02:03:48.254Z,28.97
2023-03-10T02:13:50.560Z,16.40
2023-03-10T02:24:01.756Z,29.43
2023-03-10T02:34:08.802Z,32.83
2023-03-10T02:44:15.295Z,29.63
2023-03-10T02:54:21.905Z,36.20
2023-03-10T03:04:27.297Z,34.53
2023-03-10T03:14:29.568Z,28.67
2023-03-10T03:24:35.142Z,27.77
2023-03-10T03:35:24.879Z,29.60
2023-03-10T03:45:29.769Z,38.07
2023-03-10T03:55:35.789Z,34.50
2023-03-10T04:05:43.967Z,34.57
2023-03-10T04:15:49.400Z,33.37
2023-03-10T04:25:51.837Z,38.33
2023-03-10T04:35:54.695Z,32.50
2023-03-10T04:46:02.150Z,41.20
2023-03-10T04:56:12.441Z,36.53
2023-03-10T05:06:20.516Z,33.33
2023-03-10T05:16:43.196Z,44.03
2023-03-10T05:26:50.431Z,41.30
2023-03-10T05:36:53.100Z,40.33
2023-03-10T05:46:55.399Z,44.43
2023-03-10T05:57:00.562Z,51.50
2023-03-10T06:07:10.052Z,48.00
2023-03-10T06:17:21.165Z,79.57
2023-03-10T06:27:35.371Z,70.83
2023-03-10T06:37:40.407Z,53.53
2023-03-10T06:47:46.380Z,71.50
2023-03-10T06:57:55.129Z,66.00
2023-03-10T07:07:59.101Z,69.90
2023-03-10T07:18:02.398Z,61.43
2023-03-10T07:28:07.710Z,68.40
2023-03-10T07:38:13.515Z,56.43
2023-03-10T07:48:18.230Z,23.43
2023-03-10T07:58:24.935Z,60.27
2023-03-10T08:08:32.254Z,64.43
2023-03-10T08:18:43.076Z,58.90
2023-03-10T08:28:48.883Z,61.20
2023-03-10T08:38:53.318Z,64.93
2023-03-10T08:49:04.754Z,59.33
2023-03-10T08:59:19.543Z,62.00
2023-03-10T09:09:21.834Z,60.47
2023-03-10T09:19:27.650Z,50.90
2023-03-10T09:29:42.569Z,52.33
2023-03-10T09:39:50.483Z,52.57
2023-03-10T09:50:33.098Z,53.10
2023-03-10T10:00:42.146Z,58.33
2023-03-10T10:10:52.306Z,47.90
2023-03-10T10:21:21.283Z,42.47
2023-03-10T10:31:29.922Z,39.93
2023-03-10T10:41:36.826Z,45.63
2023-03-10T10:51:40.931Z,40.83
2023-03-10T11:01:55.227Z,35.37
2023-03-10T11:12:39.107Z,29.67
2023-03-10T11:22:59.464Z,26.63
2023-03-10T11:33:03.805Z,26.47
2023-03-10T11:43:12.572Z,27.73
2023-03-10T11:53:29.696Z,26.13
2023-03-10T12:03:56.516Z,22.57
2023-03-10T12:14:01.388Z,19.80
2023-03-10T12:24:44.270Z,17.53
2023-03-10T12:35:25.353Z,14.43
2023-03-10T12:45:34.279Z,14.57
2023-03-10T12:55:43.729Z,13.57
2023-03-10T13:06:15.697Z,12.80
2023-03-10T13:16:23.721Z,12.20
2023-03-10T13:26:27.409Z,8.23
2023-03-10T13:36:38.185Z,8.05
2023-03-10T13:47:01.475Z,7.22
2023-03-10T13:57:27.296Z,5.80
2023-03-10T14:07:37.786Z,5.65
2023-03-10T14:17:44.812Z,6.82
2023-03-10T14:27:59.186Z,10.85
2023-03-10T14:38:05.434Z,9.38
2023-03-10T14:48:14.046Z,8.98
2023-03-10T14:58:35.846Z,6.32
2023-03-10T15:08:43.472Z,4.05
2023-03-10T15:18:49.452Z,5.70
2023-03-10T15:28:59.486Z,6.55
2023-03-10T15:39:04.871Z,7.53
2023-03-10T15:49:15.398Z,5.68
2023-03-10T15:59:19.870Z,7.65
2023-03-10T16:09:22.302Z,6.88
2023-03-10T16:19:36.066Z,9.93
2023-03-10T16:29:43.040Z,8.02
2023-03-10T16:39:45.809Z,10.15
2023-03-10T16:49:51.525Z,14.00
2023-03-10T16:59:57.095Z,9.65
2023-03-10T17:10:00.220Z,12.30
2023-03-10T17:20:09.275Z,12.73
2023-03-10T17:30:12.544Z,7.97
2023-03-10T17:40:21.745Z,13.15
2023-03-10T17:50:28.653Z,11.50
2023-03-10T18:00:36.280Z,9.95
2023-03-10T18:10:46.042Z,13.52
2023-03-10T18:20:54.688Z,12.60
2023-03-10T18:31:00.324Z,11.90
2023-03-10T18:41:15.074Z,8.38
2023-03-10T18:51:19.820Z,9.88
2023-03-10T19:01:28.568Z,11.60
2023-03-10T19:11:41.274Z,12.70
2023-03-10T19:21:45.100Z,16.35
2023-03-10T19:31:53.230Z,13.38
2023-03-10T19:42:00.948Z,15.35
2023-03-10T19:52:12.414Z,15.60
2023-03-10T20:02:16.681Z,13.60
2023-03-10T20:12:21.107Z,12.43
2023-03-10T20:22:25.484Z,17.73
2023-03-10T20:32:32.437Z,15.73
2023-03-10T20:42:37.129Z,13.05
2023-03-10T20:52:43.307Z,11.93
2023-03-10T21:02:49.469Z,11.88
2023-03-10T21:12:51.888Z,19.10
2023-03-10T21:22:56.581Z,27.13
2023-03-10T21:33:01.014Z,29.33
2023-03-10T21:43:05.738Z,38.07
2023-03-10T21:53:10.349Z,36.53
2023-03-10T22:03:21.070Z,40.43
2023-03-10T22:13:26.265Z,37.30
2023-03-10T22:23:30.544Z,34.03
2023-03-10T22:33:34.412Z,28.80
2023-03-10T22:43:38.916Z,28.40
2023-03-10T22:53:41.829Z,25.57
2023-03-10T23:03:43.912Z,27.00
2023-03-10T23:13:51.090Z,21.88
2023-03-10T23:23:54.706Z,25.57
2023-03-10T23:33:56.901Z,25.03
2023-03-10T23:44:02.057Z,27.00
2023-03-10T23:54:04.612Z,26.77
